Time;durP1;ratioP1;P1;durP2;ratioP2;P2;SDS_P1;SDS_P2;PMS_P1;PMS_P2;Temp;Humidity;BMP_temperature;BMP_pressure;BME280_temperature;BME280_humidity;BME280_pressure;Samples;Min_cycle;Max_cycle;Signal;HPM_P1;HPM_P2
2021/11/03 00:01:26;;;;;;;33.40;26.10;;;256.10;2252.80;;;;;;5092575;28;20019;-74
2021/11/03 00:03:52;;;;;;;34.67;23.00;;;256.20;2252.80;;;;;;5093564;28;20111;-75
2021/11/03 00:06:21;;;;;;;35.38;23.63;;;256.30;2252.80;;;;;;5093415;28;20118;-74
2021/11/03 00:08:48;;;;;;;35.15;22.67;;;256.30;2252.80;;;;;;5092233;28;20062;-75
2021/11/03 00:11:14;;;;;;;29.60;23.20;;;256.20;2252.80;;;;;;5111492;28;20024;-75
2021/11/03 00:13:40;;;;;;;29.85;22.33;;;256.20;2252.80;;;;;;5110958;28;20038;-75
2021/11/03 00:16:06;;;;;;;31.60;23.20;;;256.20;2252.80;;;;;;5093350;28;20123;-75
2021/11/03 00:18:32;;;;;;;27.50;20.27;;;256.30;2252.80;;;;;;5095269;28;20069;-75
2021/11/03 00:21:01;;;;;;;23.55;20.27;;;256.20;2252.80;;;;;;5113291;28;20019;-74
2021/11/03 00:23:27;;;;;;;30.90;20.35;;;256.20;2252.80;;;;;;5131332;28;20034;-75
2021/11/03 00:25:53;;;;;;;31.17;20.50;;;256.20;2252.80;;;;;;5113170;28;20403;-74
2021/11/03 00:28:21;;;;;;;29.60;21.65;;;256.30;2252.80;;;;;;5113268;28;20062;-74
2021/11/03 00:30:50;;;;;;;28.42;19.98;;;256.30;2252.80;;;;;;5113175;28;20559;-74
2021/11/03 00:33:16;;;;;;;31.73;21.63;;;256.30;2252.80;;;;;;5113083;28;20023;-75
2021/11/03 00:35:42;;;;;;;34.28;22.58;;;256.30;2252.80;;;;;;5131397;28;20019;-75
2021/11/03 00:38:08;;;;;;;34.58;24.05;;;256.30;2252.80;;;;;;5113247;28;20152;-75
2021/11/03 00:40:35;;;;;;;36.58;25.33;;;256.30;2252.80;;;;;;5115673;28;20024;-75
2021/11/03 00:43:02;;;;;;;31.55;24.63;;;256.20;2252.80;;;;;;5092969;28;20553;-75
2021/11/03 00:45:27;;;;;;;37.88;26.33;;;256.20;2252.80;;;;;;5094033;28;20035;-75
2021/11/03 00:47:53;;;;;;;41.88;31.85;;;256.20;2252.80;;;;;;5114658;28;20056;-76
2021/11/03 00:50:21;;;;;;;38.28;28.25;;;256.30;2252.80;;;;;;5129215;27;20035;-76
2021/11/03 00:52:47;;;;;;;36.78;25.98;;;256.30;2252.80;;;;;;5135324;27;20032;-76
2021/11/03 00:55:13;;;;;;;35.22;26.80;;;256.30;2252.80;;;;;;5135757;27;20019;-76
2021/11/03 00:57:39;;;;;;;34.10;23.85;;;256.30;2252.80;;;;;;5116391;27;20062;-75
2021/11/03 01:00:07;;;;;;;38.92;27.70;;;256.30;2252.80;;;;;;5117225;27;20043;-76
2021/11/03 01:02:33;;;;;;;50.35;34.03;;;256.30;2252.80;;;;;;5135092;27;20440;-76
2021/11/03 01:05:04;;;;;;;39.47;27.77;;;256.30;2252.80;;;;;;5135708;27;20035;-76
2021/11/03 01:07:29;;;;;;;45.75;31.50;;;256.20;2252.80;;;;;;5134606;27;20042;-76
2021/11/03 01:09:55;;;;;;;46.55;29.02;;;256.20;2252.80;;;;;;5116385;27;20019;-77
2021/11/03 01:12:21;;;;;;;40.88;29.67;;;256.30;2252.80;;;;;;5135339;27;20387;-76
2021/11/03 01:14:47;;;;;;;44.38;29.38;;;256.30;2252.80;;;;;;5115387;27;20025;-76
2021/11/03 01:17:13;;;;;;;42.15;28.63;;;256.30;2252.80;;;;;;5115593;27;20033;-76
2021/11/03 01:19:39;;;;;;;40.20;26.83;;;256.20;2252.80;;;;;;5134624;27;20019;-75
2021/11/03 01:22:05;;;;;;;37.08;26.70;;;256.20;2252.80;;;;;;5134996;27;20027;-76
2021/11/03 01:24:30;;;;;;;38.17;26.63;;;256.20;2252.80;;;;;;5106472;28;20053;-76
2021/11/03 01:26:56;;;;;;;36.20;26.13;;;256.10;2252.80;;;;;;5096274;28;20395;-76
2021/11/03 01:29:22;;;;;;;39.70;27.02;;;256.10;2252.80;;;;;;5127134;27;20459;-75
2021/11/03 01:31:49;;;;;;;41.08;27.13;;;256.10;2252.80;;;;;;5116270;27;20023;-76
2021/11/03 01:34:15;;;;;;;43.55;30.35;;;256.10;2252.80;;;;;;5115962;27;20038;-75
2021/11/03 01:36:42;;;;;;;51.97;34.65;;;256.10;2252.80;;;;;;5116631;27;20020;-76
2021/11/03 01:39:08;;;;;;;56.63;37.22;;;256.00;2252.80;;;;;;5115797;27;20027;-75
2021/11/03 01:41:35;;;;;;;60.42;39.55;;;256.00;2252.80;;;;;;5115504;27;20060;-75
2021/11/03 01:44:11;;;;;;;53.05;35.55;;;256.00;2252.80;;;;;;5116594;27;20037;-76
2021/11/03 01:46:42;;;;;;;57.40;37.25;;;256.00;2252.80;;;;;;5115806;27;20035;-76
2021/11/03 01:49:17;;;;;;;51.20;35.35;;;256.00;2252.80;;;;;;5116174;27;20469;-75
2021/11/03 01:52:04;;;;;;;52.65;34.20;;;231.30;2252.80;;;;;;5134401;27;20053;-75
2021/11/03 01:54:44;;;;;;;50.90;33.58;;;231.20;2252.80;;;;;;5114197;27;20044;-75
2021/11/03 01:57:21;;;;;;;45.70;31.05;;;231.20;2252.80;;;;;;5115864;27;20023;-75
2021/11/03 01:59:51;;;;;;;45.33;30.52;;;231.10;2252.80;;;;;;5134403;27;20026;-75
2021/11/03 02:02:19;;;;;;;50.38;31.58;;;231.00;2252.80;;;;;;5114830;27;20172;-75
2021/11/03 02:04:46;;;;;;;42.67;29.85;;;230.80;2252.80;;;;;;5134311;27;20023;-76
2021/11/03 02:07:20;;;;;;;47.33;29.63;;;230.60;2252.80;;;;;;5133837;27;20019;-75
2021/11/03 02:09:46;;;;;;;45.67;29.27;;;230.60;2252.80;;;;;;5134291;27;20019;-75
2021/11/03 02:12:20;;;;;;;38.35;26.55;;;230.60;2252.80;;;;;;5133437;27;20027;-75
2021/11/03 02:14:48;;;;;;;42.55;30.23;;;230.60;2252.80;;;;;;5115482;27;20029;-75
2021/11/03 02:17:18;;;;;;;43.60;30.77;;;230.60;2252.80;;;;;;5134233;27;20031;-75
2021/11/03 02:19:45;;;;;;;42.53;32.30;;;230.60;2252.80;;;;;;5143605;27;20023;-76
2021/11/03 02:22:35;;;;;;;42.72;29.15;;;230.60;2252.80;;;;;;5136155;27;20019;-76
2021/11/03 02:25:17;;;;;;;38.83;27.73;;;230.50;2252.80;;;;;;5141837;27;20047;-75
2021/11/03 02:27:48;;;;;;;34.35;26.10;;;230.50;2252.80;;;;;;5115397;27;20050;-76
2021/11/03 02:30:18;;;;;;;32.45;24.95;;;230.40;2252.80;;;;;;5115386;27;20382;-76
2021/11/03 02:32:45;;;;;;;36.03;25.23;;;230.40;2252.80;;;;;;5115083;27;20360;-76
2021/11/03 02:35:12;;;;;;;31.83;24.83;;;230.40;2252.80;;;;;;5133862;27;20030;-75
2021/11/03 02:37:48;;;;;;;36.72;26.63;;;205.70;2252.80;;;;;;5115587;27;20019;-75
2021/11/03 02:40:48;;;;;;;29.80;23.20;;;205.70;2252.80;;;;;;5133712;27;20015;-75
2021/11/03 02:43:31;;;;;;;34.05;24.75;;;205.70;2252.80;;;;;;5133579;27;20105;-76
2021/11/03 02:46:00;;;;;;;34.22;24.13;;;205.60;2252.80;;;;;;5114774;27;20027;-75
2021/11/03 02:48:29;;;;;;;30.83;21.60;;;205.60;2252.80;;;;;;5133429;27;20496;-76
2021/11/03 02:51:07;;;;;;;32.22;23.02;;;205.60;2252.80;;;;;;5133617;27;20102;-75
2021/11/03 02:53:40;;;;;;;32.72;24.02;;;205.60;2252.80;;;;;;5133563;27;20058;-75
2021/11/03 02:56:07;;;;;;;34.15;21.98;;;205.60;2252.80;;;;;;5114624;27;20063;-75
2021/11/03 02:58:34;;;;;;;32.42;26.02;;;205.60;2252.80;;;;;;5115378;27;20047;-75
2021/11/03 03:01:31;;;;;;;37.00;27.63;;;205.60;2252.80;;;;;;5097649;28;20480;-76
2021/11/03 03:03:58;;;;;;;40.53;30.73;;;205.60;2252.80;;;;;;5013621;28;20091;-75
2021/11/03 03:06:27;;;;;;;56.92;40.33;;;205.60;2252.80;;;;;;5030318;28;20125;-75
2021/11/03 03:08:55;;;;;;;66.60;48.60;;;205.50;2252.80;;;;;;5012675;28;20423;-76
2021/11/03 03:11:24;;;;;;;60.47;43.30;;;205.40;2252.80;;;;;;5029545;28;20072;-76
2021/11/03 03:13:50;;;;;;;52.45;37.22;;;205.40;2252.80;;;;;;5030004;28;20823;-75
2021/11/03 03:16:21;;;;;;;52.50;35.55;;;205.40;2252.80;;;;;;5013039;28;20124;-76
2021/11/03 03:18:48;;;;;;;40.30;30.05;;;205.40;2252.80;;;;;;5012848;28;20033;-76
2021/11/03 03:21:16;;;;;;;40.50;29.55;;;205.40;2252.80;;;;;;5036002;28;20067;-76
2021/11/03 03:23:43;;;;;;;38.55;28.23;;;205.40;2252.80;;;;;;5004513;28;20026;-75
2021/11/03 03:26:11;;;;;;;35.80;24.95;;;205.30;2252.80;;;;;;4998986;28;20029;-76
2021/11/03 03:28:38;;;;;;;34.42;23.67;;;205.30;2252.80;;;;;;4997023;28;20095;-77
2021/11/03 03:31:06;;;;;;;36.72;23.25;;;205.30;2252.80;;;;;;5013288;28;20417;-76
2021/11/03 03:33:31;;;;;;;32.05;23.23;;;205.30;2252.80;;;;;;5012553;28;20057;-76
2021/11/03 03:35:57;;;;;;;33.80;22.95;;;205.30;2252.80;;;;;;5029667;28;20048;-77
2021/11/03 03:38:23;;;;;;;32.97;22.75;;;205.20;2252.80;;;;;;5012845;28;20512;-76
2021/11/03 03:40:49;;;;;;;36.15;24.98;;;205.20;2252.80;;;;;;5049929;28;20139;-75
2021/11/03 03:43:15;;;;;;;41.30;26.77;;;205.10;2252.80;;;;;;5119965;27;20035;-75
2021/11/03 03:45:41;;;;;;;38.75;27.23;;;205.20;2252.80;;;;;;5132810;27;20776;-76
2021/11/03 03:48:07;;;;;;;33.17;25.13;;;205.20;2252.80;;;;;;5113685;27;20051;-76
2021/11/03 03:50:34;;;;;;;40.85;26.58;;;205.20;2252.80;;;;;;5114446;27;20050;-75
2021/11/03 03:52:59;;;;;;;34.33;25.38;;;205.20;2252.80;;;;;;5132280;27;20106;-75
2021/11/03 03:55:25;;;;;;;36.63;25.45;;;205.20;2252.80;;;;;;5132460;27;20440;-75
2021/11/03 03:57:51;;;;;;;41.92;26.05;;;205.20;2252.80;;;;;;5114085;28;20479;-75
2021/11/03 04:00:19;;;;;;;39.08;25.25;;;205.10;2252.80;;;;;;5108780;28;20028;-75
2021/11/03 04:02:46;;;;;;;40.55;24.40;;;205.10;2252.80;;;;;;5093361;28;20027;-75
2021/11/03 04:05:13;;;;;;;36.53;23.45;;;205.10;2252.80;;;;;;5117615;27;20118;-76
2021/11/03 04:07:39;;;;;;;33.63;21.98;;;205.10;2252.80;;;;;;5113832;28;20113;-76
2021/11/03 04:10:07;;;;;;;38.42;25.50;;;205.20;2252.80;;;;;;5113553;28;20168;-75
2021/11/03 04:12:33;;;;;;;35.80;24.95;;;205.10;2252.80;;;;;;5114097;28;20086;-76
2021/11/03 04:15:01;;;;;;;37.42;25.90;;;205.00;2252.80;;;;;;5113839;28;20028;-76
2021/11/03 04:17:27;;;;;;;43.45;24.58;;;205.00;2252.80;;;;;;5113602;28;20027;-75
2021/11/03 04:19:53;;;;;;;31.88;20.35;;;205.00;2252.80;;;;;;5109183;27;20547;-75
2021/11/03 04:22:18;;;;;;;33.22;21.83;;;205.00;2252.80;;;;;;5117508;27;20029;-76
2021/11/03 04:24:44;;;;;;;34.03;24.38;;;204.90;2252.80;;;;;;5136237;27;20023;-75
2021/11/03 04:27:10;;;;;;;35.08;23.38;;;204.90;2252.80;;;;;;5135715;27;20031;-75
2021/11/03 04:29:36;;;;;;;35.13;23.40;;;204.80;2252.80;;;;;;5135824;27;20021;-75
2021/11/03 04:32:03;;;;;;;30.77;23.10;;;204.80;2252.80;;;;;;5112145;27;20038;-76
2021/11/03 04:34:29;;;;;;;33.97;23.95;;;204.80;2252.80;;;;;;5116894;27;20515;-75
2021/11/03 04:36:58;;;;;;;29.50;21.10;;;204.80;2252.80;;;;;;5135882;27;20098;-75
2021/11/03 04:39:26;;;;;;;31.55;23.08;;;204.80;2252.80;;;;;;5136146;27;20076;-75
2021/11/03 04:41:52;;;;;;;36.33;23.13;;;204.90;2252.80;;;;;;5117554;27;20076;-76
2021/11/03 04:44:18;;;;;;;36.00;24.58;;;204.90;2252.80;;;;;;5116970;27;20035;-76
2021/11/03 04:46:44;;;;;;;36.85;25.95;;;204.90;2252.80;;;;;;5136080;27;20106;-75
2021/11/03 04:49:10;;;;;;;32.05;24.70;;;204.90;2252.80;;;;;;5135324;27;20452;-76
2021/11/03 04:51:36;;;;;;;36.03;24.80;;;204.90;2252.80;;;;;;5116629;27;20027;-75
2021/11/03 04:54:02;;;;;;;32.65;23.95;;;204.90;2252.80;;;;;;5116023;27;20047;-75
2021/11/03 04:56:28;;;;;;;31.13;23.95;;;205.00;2252.80;;;;;;5117678;27;20038;-76
2021/11/03 04:58:54;;;;;;;31.70;22.48;;;205.20;2252.80;;;;;;5135348;27;20475;-76
2021/11/03 05:01:22;;;;;;;32.10;24.00;;;205.10;2252.80;;;;;;5116410;27;20035;-75
2021/11/03 05:03:49;;;;;;;30.67;22.70;;;205.20;2252.80;;;;;;5135249;27;20110;-75
2021/11/03 05:06:17;;;;;;;31.88;24.63;;;205.20;2252.80;;;;;;5116912;27;20031;-75
2021/11/03 05:08:43;;;;;;;33.50;25.58;;;205.20;2252.80;;;;;;5135725;27;20023;-75
2021/11/03 05:11:09;;;;;;;30.02;22.40;;;205.20;2252.80;;;;;;5135133;27;20080;-76
2021/11/03 05:13:35;;;;;;;32.05;22.77;;;205.10;2252.80;;;;;;5117098;27;20368;-76
2021/11/03 05:16:01;;;;;;;30.55;21.75;;;205.20;2252.80;;;;;;5112251;28;20034;-77
2021/11/03 05:18:27;;;;;;;30.73;24.80;;;205.20;2252.80;;;;;;5128144;27;20031;-77
2021/11/03 05:20:53;;;;;;;39.75;28.58;;;205.30;2252.80;;;;;;5115733;27;20019;-77
2021/11/03 05:23:24;;;;;;;36.58;28.42;;;205.30;2252.80;;;;;;5134894;27;20039;-77
2021/11/03 05:25:54;;;;;;;42.80;29.33;;;205.30;2252.80;;;;;;5116541;27;20046;-77
2021/11/03 05:28:25;;;;;;;36.70;26.63;;;205.30;2252.80;;;;;;5116907;27;20023;-77
2021/11/03 05:30:57;;;;;;;34.60;24.90;;;205.40;2252.80;;;;;;5132742;27;20574;-78
2021/11/03 05:33:23;;;;;;;37.03;25.77;;;205.40;2252.80;;;;;;5099398;27;20475;-78
2021/11/03 05:35:49;;;;;;;37.65;27.88;;;205.40;2252.80;;;;;;5116964;27;20016;-80
2021/11/03 05:38:15;;;;;;;36.53;24.50;;;205.30;2252.80;;;;;;5115709;27;20031;-80
2021/11/03 05:40:42;;;;;;;30.00;22.42;;;205.40;2252.80;;;;;;5129929;27;20480;-78
2021/11/03 05:43:08;;;;;;;33.78;22.00;;;205.30;2252.80;;;;;;5095798;28;20027;-78
2021/11/03 05:45:33;;;;;;;39.42;25.85;;;205.30;2252.80;;;;;;5096607;27;20472;-78
2021/11/03 05:47:59;;;;;;;37.00;26.38;;;205.50;2252.80;;;;;;5094786;28;20048;-78
2021/11/03 05:50:32;;;;;;;40.15;27.15;;;205.60;2252.80;;;;;;5095473;27;20483;-79
2021/11/03 05:52:58;;;;;;;42.42;28.60;;;205.50;2252.80;;;;;;5115589;27;20065;-76
2021/11/03 05:55:24;;;;;;;42.53;28.80;;;205.60;2252.80;;;;;;5114683;27;20023;-79
2021/11/03 05:57:51;;;;;;;47.58;30.10;;;205.60;2252.80;;;;;;5115614;27;20038;-77
2021/11/03 06:00:24;;;;;;;39.25;28.70;;;205.70;2252.80;;;;;;5132591;27;20027;-77
2021/11/03 06:02:53;;;;;;;49.90;33.03;;;205.60;2252.80;;;;;;5103089;27;20041;-78
2021/11/03 06:05:23;;;;;;;49.20;31.30;;;205.70;2252.80;;;;;;5106790;27;20173;-76
2021/11/03 06:08:04;;;;;;;52.72;33.58;;;230.40;2252.80;;;;;;5095328;28;20031;-77
2021/11/03 06:10:36;;;;;;;54.50;32.65;;;230.40;2252.80;;;;;;5101260;27;20028;-76
2021/11/03 06:13:03;;;;;;;57.85;38.53;;;230.60;2252.80;;;;;;5123580;27;20028;-77
2021/11/03 06:15:33;;;;;;;64.85;43.10;;;230.70;2252.80;;;;;;5123041;27;20012;-77
2021/11/03 06:18:02;;;;;;;107.88;85.65;;;230.90;2252.80;;;;;;5106253;27;20039;-77
2021/11/03 06:20:29;;;;;;;70.40;55.90;;;230.90;2252.80;;;;;;5103796;27;20027;-77
2021/11/03 06:23:01;;;;;;;55.65;39.15;;;231.20;2252.80;;;;;;5125032;27;20024;-76
2021/11/03 06:25:26;;;;;;;46.67;33.58;;;231.20;2252.80;;;;;;5116018;27;20032;-77
2021/11/03 06:27:54;;;;;;;44.40;30.58;;;231.20;2252.80;;;;;;5121171;27;20071;-78
2021/11/03 06:30:27;;;;;;;46.90;30.52;;;231.30;2252.80;;;;;;5103264;27;20564;-79
2021/11/03 06:32:53;;;;;;;41.78;27.05;;;231.30;2252.80;;;;;;5123034;27;20038;-78
2021/11/03 06:35:24;;;;;;;46.45;30.55;;;231.30;2252.80;;;;;;5125401;27;20026;-77
2021/11/03 06:37:56;;;;;;;48.15;29.52;;;256.00;2252.80;;;;;;5106243;27;20039;-78
2021/11/03 06:40:25;;;;;;;58.80;33.45;;;256.00;2252.80;;;;;;5104920;27;20383;-77
2021/11/03 06:43:07;;;;;;;56.15;34.90;;;256.10;2252.80;;;;;;5097505;28;20066;-76
2021/11/03 06:45:33;;;;;;;83.68;40.55;;;231.30;2252.80;;;;;;5116942;27;20023;-77
2021/11/03 06:48:03;;;;;;;83.63;41.92;;;256.00;2252.80;;;;;;5121511;27;20055;-76
2021/11/03 06:50:33;;;;;;;59.92;33.58;;;231.30;2252.80;;;;;;5101771;28;20123;-77
2021/11/03 06:53:00;;;;;;;68.95;36.65;;;256.00;2252.80;;;;;;5097181;28;20396;-76
2021/11/03 06:55:27;;;;;;;67.20;36.40;;;256.10;2252.80;;;;;;5144294;27;20027;-76
2021/11/03 06:57:58;;;;;;;58.95;34.75;;;256.10;2252.80;;;;;;5138481;27;20034;-75
2021/11/03 07:00:30;;;;;;;61.90;32.67;;;256.00;2252.80;;;;;;5143342;27;20034;-76
2021/11/03 07:02:56;;;;;;;60.38;35.00;;;256.20;2252.80;;;;;;5102260;27;20410;-75
2021/11/03 07:05:23;;;;;;;62.33;34.95;;;256.40;2252.80;;;;;;5105856;27;20114;-74
2021/11/03 07:07:54;;;;;;;56.25;32.40;;;256.50;2252.80;;;;;;5108044;27;20030;-74
2021/11/03 07:10:27;;;;;;;68.22;35.45;;;256.50;2252.80;;;;;;5102339;28;20415;-74
2021/11/03 07:12:56;;;;;;;75.50;36.92;;;256.50;2252.80;;;;;;5098218;28;20032;-74
2021/11/03 07:15:25;;;;;;;56.67;34.67;;;256.60;2252.80;;;;;;5117421;27;20015;-75
2021/11/03 07:17:52;;;;;;;63.83;34.85;;;256.70;2252.80;;;;;;5111097;28;20050;-74
2021/11/03 07:20:18;;;;;;;63.08;36.55;;;256.80;2252.80;;;;;;5119414;27;20483;-75
2021/11/03 07:22:47;;;;;;;57.60;34.22;;;281.60;2278.40;;;;;;5110919;27;20028;-75
2021/11/03 07:25:27;;;;;;;60.20;34.75;;;281.60;2278.40;;;;;;5110365;27;20038;-75
2021/11/03 07:27:57;;;;;;;60.63;34.05;;;281.70;2278.40;;;;;;5128721;27;20484;-75
2021/11/03 07:30:30;;;;;;;62.67;37.42;;;281.80;2278.40;;;;;;5122918;27;20028;-75
2021/11/03 07:32:56;;;;;;;62.88;37.53;;;281.80;2278.40;;;;;;5120439;27;20040;-75
2021/11/03 07:35:27;;;;;;;58.70;32.13;;;281.90;2278.40;;;;;;5125106;27;20034;-75
2021/11/03 07:37:57;;;;;;;53.92;34.22;;;282.10;2278.40;;;;;;5100539;27;20011;-74
2021/11/03 07:40:39;;;;;;;65.85;35.53;;;282.10;2278.40;;;;;;5123390;27;20015;-76
2021/11/03 07:43:10;;;;;;;65.05;37.08;;;282.20;2278.40;;;;;;5124776;27;20026;-75
2021/11/03 07:45:37;;;;;;;73.07;41.20;;;282.30;2278.40;;;;;;5102604;28;20027;-75
2021/11/03 07:48:09;;;;;;;68.20;39.88;;;282.10;2278.40;;;;;;5103549;28;20523;-74
2021/11/03 07:50:41;;;;;;;72.43;41.33;;;282.20;2278.40;;;;;;5101054;28;20103;-74
2021/11/03 07:53:11;;;;;;;72.78;45.42;;;282.10;2278.40;;;;;;5096320;28;20035;-76
2021/11/03 07:56:05;;;;;;;60.53;37.40;;;282.30;2278.40;;;;;;5089873;28;20027;-75
2021/11/03 07:58:37;;;;;;;61.70;35.75;;;282.30;2278.40;;;;;;5089769;28;20032;-76
2021/11/03 08:01:05;;;;;;;92.57;68.93;;;282.50;2278.40;;;;;;5110812;28;20372;-75
2021/11/03 08:03:31;;;;;;;79.60;44.33;;;282.40;2278.40;;;;;;5109967;28;20620;-75
2021/11/03 08:06:00;;;;;;;80.45;48.10;;;282.30;2278.40;;;;;;5107795;28;20484;-75
2021/11/03 08:08:31;;;;;;;75.53;42.80;;;282.40;2278.40;;;;;;5091442;28;20020;-75
2021/11/03 08:11:00;;;;;;;76.03;41.90;;;282.50;2278.40;;;;;;5089646;28;20072;-76
2021/11/03 08:13:32;;;;;;;80.63;42.47;;;307.20;2304.00;;;;;;5091220;28;20648;-75
2021/11/03 08:16:00;;;;;;;71.43;42.50;;;307.20;2304.00;;;;;;5095893;28;20019;-75
2021/11/03 08:18:32;;;;;;;78.03;40.88;;;307.30;2304.00;;;;;;5110089;28;20059;-75
2021/11/03 08:20:58;;;;;;;87.03;44.47;;;307.40;2304.00;;;;;;5110156;28;20377;-75
2021/11/03 08:23:30;;;;;;;84.65;41.72;;;307.50;2304.00;;;;;;5111017;28;20031;-75
2021/11/03 08:25:59;;;;;;;92.07;46.47;;;307.60;2304.00;;;;;;5109802;28;20399;-76
2021/11/03 08:28:31;;;;;;;85.47;44.97;;;307.70;2304.00;;;;;;5109876;28;20488;-75
2021/11/03 08:31:00;;;;;;;94.25;52.00;;;307.70;2304.00;;;;;;5111582;28;20039;-76
2021/11/03 08:33:33;;;;;;;92.07;47.47;;;307.90;2304.00;;;;;;5109752;28;20027;-75
2021/11/03 08:36:04;;;;;;;88.43;51.65;;;308.10;2304.00;;;;;;5107715;28;20020;-75
2021/11/03 08:38:32;;;;;;;94.45;51.30;;;332.80;2329.60;;;;;;5106732;28;20088;-75
2021/11/03 08:40:57;;;;;;;76.55;39.92;;;332.90;2329.60;;;;;;5093394;28;20105;-75
2021/11/03 08:43:27;;;;;;;75.10;42.15;;;332.90;2329.60;;;;;;5090156;28;20062;-75
2021/11/03 08:46:00;;;;;;;84.93;41.47;;;333.00;2329.60;;;;;;5092466;28;20028;-75
2021/11/03 08:48:27;;;;;;;83.93;41.97;;;333.10;2329.60;;;;;;5121328;28;20124;-75
2021/11/03 08:50:54;;;;;;;97.68;48.17;;;333.30;2329.60;;;;;;5113359;28;20024;-75
2021/11/03 08:53:20;;;;;;;90.57;47.90;;;333.30;2329.60;;;;;;5130691;28;20035;-75
2021/11/03 10:24:41;;;;;;;21.17;16.55;;;512.00;2380.80;;;;;;5130253;27;20364;-77
2021/11/03 10:27:12;;;;;;;24.08;17.48;;;563.40;2432.00;;;;;;5125081;28;20024;-77
2021/11/03 10:29:43;;;;;;;24.38;17.50;;;563.60;2432.00;;;;;;5129278;27;20567;-76
2021/11/03 10:32:09;;;;;;;26.95;18.02;;;563.70;2432.00;;;;;;5117507;28;20034;-76
2021/11/03 10:34:34;;;;;;;19.30;14.52;;;589.00;2432.00;;;;;;5118044;28;20024;-76
2021/11/03 10:37:06;;;;;;;18.08;14.70;;;589.20;2432.00;;;;;;5124966;28;20022;-77
2021/11/03 10:39:59;;;;;;;18.95;14.75;;;589.60;2432.00;;;;;;5109395;28;20740;-77
2021/11/03 10:42:31;;;;;;;17.30;13.85;;;589.70;2432.00;;;;;;5112566;28;20031;-77
2021/11/03 10:45:12;;;;;;;16.45;12.88;;;614.90;2432.00;;;;;;5120977;28;20913;-76
2021/11/03 10:47:38;;;;;;;17.48;14.50;;;614.70;2432.00;;;;;;5125630;28;20491;-76
2021/11/03 10:50:40;;;;;;;16.90;14.20;;;614.60;2432.00;;;;;;5123023;28;20032;-76
2021/11/03 10:53:21;;;;;;;20.48;13.88;;;614.60;2432.00;;;;;;5124381;28;20479;-76
2021/11/03 10:56:01;;;;;;;17.92;13.10;;;615.00;2432.00;;;;;;5124138;28;20026;-76
2021/11/03 10:58:33;;;;;;;17.42;13.48;;;615.30;2432.00;;;;;;5128062;28;20816;-77
2021/11/03 11:01:12;;;;;;;15.32;12.82;;;640.20;2432.00;;;;;;5119763;28;20028;-77
2021/11/03 11:03:55;;;;;;;15.55;12.55;;;640.10;2432.00;;;;;;5122051;28;20034;-77
2021/11/03 11:06:42;;;;;;;16.60;13.48;;;615.20;2432.00;;;;;;5120300;28;20023;-76
2021/11/03 11:09:36;;;;;;;12.38;10.35;;;640.40;2432.00;;;;;;5120179;28;20034;-76
2021/11/03 11:12:13;;;;;;;17.88;12.90;;;615.30;2432.00;;;;;;5117055;27;20123;-76
2021/11/03 11:14:40;;;;;;;14.60;11.68;;;640.10;2432.00;;;;;;5119158;28;20414;-77
2021/11/03 11:17:19;;;;;;;14.95;11.30;;;615.10;2432.00;;;;;;5120005;28;20015;-76
2021/11/03 11:19:51;;;;;;;14.43;12.57;;;640.00;2432.00;;;;;;5121024;28;20052;-77
2021/11/03 11:22:33;;;;;;;14.43;10.07;;;640.40;2432.00;;;;;;5120147;27;20033;-77
2021/11/03 11:25:09;;;;;;;13.93;11.25;;;640.40;2432.00;;;;;;5108431;28;20020;-77
2021/11/03 11:28:00;;;;;;;12.32;8.88;;;640.00;2432.00;;;;;;5108358;28;20020;-76
2021/11/03 11:30:52;;;;;;;10.73;8.98;;;640.20;2432.00;;;;;;5105139;28;20031;-77
2021/11/03 11:33:34;;;;;;;11.95;10.55;;;640.00;2432.00;;;;;;5104117;28;20023;-77
2021/11/03 11:36:23;;;;;;;13.98;9.13;;;614.90;2432.00;;;;;;5114649;28;20019;-77
2021/11/03 11:39:17;;;;;;;10.43;9.15;;;615.00;2432.00;;;;;;5106130;28;20020;-77
2021/11/03 11:42:07;;;;;;;13.18;9.57;;;614.70;2432.00;;;;;;5113780;28;20053;-77
2021/11/03 11:44:39;;;;;;;14.60;12.00;;;614.50;2432.00;;;;;;5103495;28;20066;-78
2021/11/03 11:47:07;;;;;;;13.02;9.35;;;589.60;2432.00;;;;;;5110300;28;20769;-76
2021/11/03 11:49:41;;;;;;;14.07;9.48;;;614.50;2432.00;;;;;;5113534;28;20038;-76
2021/11/03 11:52:22;;;;;;;12.65;8.63;;;614.90;2432.00;;;;;;5113343;28;20089;-76
2021/11/03 11:55:25;;;;;;;14.70;10.05;;;615.20;2432.00;;;;;;5113679;28;20050;-77
2021/11/03 11:58:06;;;;;;;13.60;10.80;;;640.20;2432.00;;;;;;5107525;28;21081;-76
2021/11/03 12:00:33;;;;;;;13.43;10.52;;;640.20;2432.00;;;;;;5114307;28;20035;-77
2021/11/03 12:03:07;;;;;;;13.18;9.90;;;640.00;2432.00;;;;;;5113934;28;20031;-76
2021/11/03 12:05:43;;;;;;;13.30;10.18;;;640.00;2432.00;;;;;;5114230;28;20097;-76
2021/11/03 12:08:09;;;;;;;12.55;9.38;;;615.00;2432.00;;;;;;5112400;28;20028;-76
2021/11/03 12:10:39;;;;;;;14.95;10.45;;;615.00;2432.00;;;;;;5114161;28;20028;-76
2021/11/03 12:13:17;;;;;;;11.05;9.50;;;614.70;2432.00;;;;;;5113013;28;20076;-76
2021/11/03 12:15:49;;;;;;;12.23;9.80;;;615.00;2432.00;;;;;;5113769;28;20383;-76
2021/11/03 12:18:37;;;;;;;18.77;10.88;;;614.90;2432.00;;;;;;5114459;28;20042;-76
2021/11/03 12:21:03;;;;;;;11.73;7.40;;;614.90;2432.00;;;;;;5112107;28;20494;-76
2021/11/03 12:23:49;;;;;;;13.63;9.30;;;615.00;2432.00;;;;;;5101550;28;20052;-76
2021/11/03 12:26:35;;;;;;;12.40;9.52;;;615.00;2432.00;;;;;;5104713;28;20066;-76
2021/11/03 12:29:16;;;;;;;9.85;7.38;;;615.30;2432.00;;;;;;5091706;28;20035;-77
2021/11/03 12:31:49;;;;;;;11.07;7.68;;;640.00;2432.00;;;;;;5110431;28;20030;-76
2021/11/03 12:34:16;;;;;;;13.02;7.78;;;615.30;2432.00;;;;;;5113674;28;20026;-77
2021/11/03 12:36:42;;;;;;;11.68;7.47;;;615.10;2432.00;;;;;;5113271;28;20467;-76
2021/11/03 12:39:12;;;;;;;15.27;7.22;;;614.70;2432.00;;;;;;5110980;28;20031;-76
2021/11/03 12:41:43;;;;;;;14.73;7.95;;;614.50;2432.00;;;;;;5105786;28;20024;-76
2021/11/03 12:44:12;;;;;;;11.05;6.78;;;589.70;2432.00;;;;;;5101824;28;20074;-76
2021/11/03 12:46:38;;;;;;;10.65;7.63;;;614.40;2432.00;;;;;;5101767;28;20032;-76
2021/11/03 12:49:14;;;;;;;8.52;6.57;;;614.50;2432.00;;;;;;5106875;28;20067;-76
2021/11/03 12:51:53;;;;;;;9.77;7.53;;;614.50;2432.00;;;;;;5102874;28;20031;-76
2021/11/03 12:54:24;;;;;;;11.50;7.93;;;614.40;2432.00;;;;;;5103985;28;20028;-76
2021/11/03 12:57:18;;;;;;;15.95;8.82;;;614.40;2432.00;;;;;;5094462;28;20024;-76
2021/11/03 12:59:58;;;;;;;11.25;7.60;;;614.50;2432.00;;;;;;5102812;28;20069;-76
2021/11/03 13:02:25;;;;;;;13.57;8.38;;;614.50;2432.00;;;;;;5096440;28;20031;-76
2021/11/03 13:05:17;;;;;;;10.98;6.55;;;589.70;2432.00;;;;;;5108170;28;20016;-76
2021/11/03 13:07:42;;;;;;;8.98;6.88;;;589.40;2432.00;;;;;;5102364;28;20032;-76
2021/11/03 13:10:26;;;;;;;11.90;7.30;;;589.30;2432.00;;;;;;5104921;28;20065;-76
2021/11/03 13:12:59;;;;;;;13.23;8.68;;;589.30;2432.00;;;;;;5104927;28;20118;-77
2021/11/03 13:15:32;;;;;;;12.18;7.55;;;589.40;2432.00;;;;;;5104627;28;20449;-76
2021/11/03 13:18:12;;;;;;;14.20;8.25;;;589.40;2432.00;;;;;;5099903;28;20031;-76
2021/11/03 13:20:41;;;;;;;10.85;7.00;;;589.50;2432.00;;;;;;5108243;28;20043;-76
2021/11/03 13:23:14;;;;;;;11.63;8.30;;;589.60;2432.00;;;;;;5098202;28;20062;-76
2021/11/03 13:25:46;;;;;;;17.30;9.55;;;589.50;2432.00;;;;;;5107412;28;20036;-76
2021/11/03 13:28:29;;;;;;;12.68;8.60;;;589.40;2432.00;;;;;;5107636;28;20058;-76
2021/11/03 13:31:50;;;;;;;11.38;7.47;;;589.30;2432.00;;;;;;5108167;28;20048;-76
2021/11/03 13:34:20;;;;;;;16.15;8.30;;;589.30;2432.00;;;;;;5008536;28;20061;-76
2021/11/03 13:37:00;;;;;;;12.70;7.18;;;589.20;2432.00;;;;;;4983566;28;20483;-76
2021/11/03 13:39:32;;;;;;;14.77;8.63;;;588.80;2432.00;;;;;;5004117;28;20132;-76
2021/11/03 13:41:59;;;;;;;14.50;7.45;;;564.10;2432.00;;;;;;4990755;28;20025;-76
2021/11/03 13:44:25;;;;;;;10.20;6.95;;;563.90;2432.00;;;;;;4992536;28;20037;-76
2021/11/03 13:46:57;;;;;;;12.98;7.38;;;563.60;2432.00;;;;;;5009255;28;20068;-76
2021/11/03 13:49:39;;;;;;;13.07;6.47;;;563.60;2432.00;;;;;;4993337;28;20021;-76